Time;durP1;ratioP1;P1;durP2;ratioP2;P2;SDS_P1;SDS_P2;PMS_P1;PMS_P2;Temp;Humidity;BMP_temperature;BMP_pressure;BME280_temperature;BME280_humidity;BME280_pressure;Samples;Min_cycle;Max_cycle;Signal;HPM_P1;HPM_P2
2022/07/04 00:01:34;;;;;;;4.65;2.78;;;;;;;26.42;60.75;100172.41;5113204;28;20198;-70
2022/07/04 00:04:01;;;;;;;4.60;2.60;;;;;;;26.30;59.98;100166.81;5114427;28;20620;-69
2022/07/04 00:06:27;;;;;;;4.55;2.40;;;;;;;26.41;60.38;100183.97;5114108;28;20189;-69
2022/07/04 00:08:56;;;;;;;5.82;2.60;;;;;;;26.38;60.58;100183.25;5114542;28;20209;-67
2022/07/04 00:11:22;;;;;;;4.70;2.70;;;;;;;26.46;59.97;100176.66;5113888;28;20233;-67
2022/07/04 00:13:49;;;;;;;4.53;2.63;;;;;;;26.34;60.17;100168.38;5114283;28;20208;-68
2022/07/04 00:16:16;;;;;;;5.07;2.67;;;;;;;26.31;59.77;100182.69;5095341;28;20189;-68
2022/07/04 00:18:43;;;;;;;3.92;2.65;;;;;;;26.14;59.40;100175.50;5113768;28;20204;-68
2022/07/04 00:21:10;;;;;;;5.25;2.95;;;;;;;26.27;60.01;100185.56;5114408;28;20217;-68
2022/07/04 00:23:37;;;;;;;11.80;2.80;;;;;;;26.28;58.83;100182.00;5114324;28;20213;-68
2022/07/04 00:26:05;;;;;;;3.35;2.47;;;;;;;26.40;58.73;100190.22;5113654;28;20190;-69
2022/07/04 00:28:31;;;;;;;3.00;2.70;;;;;;;26.29;59.32;100178.41;5113510;28;20586;-68
2022/07/04 00:30:58;;;;;;;7.78;2.80;;;;;;;26.20;59.35;100179.69;5114032;28;20217;-69
2022/07/04 00:33:25;;;;;;;2.20;2.10;;;;;;;26.14;59.62;100191.47;5113659;28;20206;-68
2022/07/04 00:35:52;;;;;;;9.88;2.63;;;;;;;26.25;59.03;100190.13;5113976;28;20204;-68
2022/07/04 00:38:19;;;;;;;6.72;2.80;;;;;;;26.06;59.36;100182.97;5113902;28;20197;-68
2022/07/04 00:40:46;;;;;;;5.35;2.70;;;;;;;26.09;59.38;100184.63;5114028;28;20196;-67
2022/07/04 00:43:21;;;;;;;4.60;2.92;;;;;;;26.29;59.02;100186.38;5113314;28;20197;-67
2022/07/04 00:45:48;;;;;;;3.90;2.50;;;;;;;26.12;58.76;100192.44;5113638;28;20208;-68
2022/07/04 00:48:15;;;;;;;4.95;2.42;;;;;;;26.13;59.83;100189.72;5113476;28;20206;-67
2022/07/04 00:50:42;;;;;;;9.80;3.05;;;;;;;26.22;59.73;100183.13;5113378;28;20221;-68
2022/07/04 00:53:09;;;;;;;5.25;2.38;;;;;;;26.24;59.00;100191.03;5114130;28;20577;-68
2022/07/04 00:55:36;;;;;;;9.80;2.65;;;;;;;26.13;59.12;100173.78;5113592;28;20199;-68
2022/07/04 00:58:03;;;;;;;3.50;2.80;;;;;;;26.17;59.31;100190.44;5113065;28;20189;-68
2022/07/04 01:00:31;;;;;;;3.67;2.80;;;;;;;26.23;59.36;100176.00;5113772;28;20197;-68
2022/07/04 01:02:58;;;;;;;5.10;2.95;;;;;;;26.15;59.38;100192.28;5094170;28;20565;-69
2022/07/04 01:05:25;;;;;;;6.25;2.78;;;;;;;26.18;58.94;100197.53;5113214;28;20197;-68
2022/07/04 01:07:52;;;;;;;6.57;3.00;;;;;;;26.22;59.14;100187.59;5113409;28;20209;-68
2022/07/04 01:10:18;;;;;;;6.00;2.92;;;;;;;26.10;59.21;100173.94;5112978;28;20212;-68
2022/07/04 01:12:45;;;;;;;4.07;2.63;;;;;;;26.10;59.45;100189.88;5112109;28;20214;-69
2022/07/04 01:15:12;;;;;;;2.72;2.63;;;;;;;26.01;59.47;100168.16;5112177;28;20190;-69
2022/07/04 01:17:40;;;;;;;3.90;2.42;;;;;;;26.24;59.09;100185.72;5112948;28;20201;-69
2022/07/04 01:20:12;;;;;;;5.07;2.75;;;;;;;26.19;59.08;100177.09;5113575;28;20209;-69
2022/07/04 01:22:39;;;;;;;5.07;2.58;;;;;;;26.10;58.62;100163.28;5094024;28;20205;-69
2022/07/04 01:25:06;;;;;;;5.97;2.65;;;;;;;26.18;58.74;100178.91;5112674;28;20200;-69
2022/07/04 01:27:33;;;;;;;3.08;2.75;;;;;;;26.02;59.39;100164.56;5076943;28;20671;-69
2022/07/04 01:30:00;;;;;;;2.97;2.58;;;;;;;26.09;59.23;100185.47;5111396;28;20209;-68
2022/07/04 01:32:27;;;;;;;2.65;2.45;;;;;;;26.00;59.53;100162.00;5092386;28;20225;-69
2022/07/04 01:34:54;;;;;;;4.93;2.88;;;;;;;26.03;59.62;100169.84;5112781;28;20209;-67
2022/07/04 01:37:22;;;;;;;4.53;2.63;;;;;;;26.16;59.60;100186.06;5112507;28;20209;-68
2022/07/04 01:39:49;;;;;;;3.78;2.45;;;;;;;26.08;59.84;100188.19;5112916;28;20206;-69
2022/07/04 01:42:16;;;;;;;6.28;3.15;;;;;;;26.12;59.65;100187.13;5112336;28;20209;-68
2022/07/04 01:44:43;;;;;;;6.68;2.90;;;;;;;26.17;59.80;100190.44;5112290;28;20282;-68
2022/07/04 01:47:09;;;;;;;3.63;2.75;;;;;;;26.05;60.15;100167.09;5089867;28;20194;-68
2022/07/04 01:49:36;;;;;;;4.05;2.58;;;;;;;26.14;59.86;100186.13;5092431;28;20665;-68
2022/07/04 01:52:03;;;;;;;3.45;2.92;;;;;;;26.03;60.11;100172.50;5112353;28;20727;-68
2022/07/04 01:54:32;;;;;;;3.13;2.70;;;;;;;26.06;60.56;100188.28;5112718;28;20226;-68
2022/07/04 01:56:58;;;;;;;3.10;2.80;;;;;;;25.98;60.10;100176.28;5093456;28;20204;-68
2022/07/04 02:01:29;;;;;;;3.03;2.90;;;;;;;26.04;60.91;100190.13;5091219;28;20205;-69
2022/07/04 02:02:20;;;;;;;2.88;2.67;;;;;;;25.99;60.98;100186.84;5112115;28;20284;-69
2022/07/04 02:04:47;;;;;;;3.08;2.88;;;;;;;25.96;60.87;100186.13;5111918;28;20272;-69
2022/07/04 02:07:13;;;;;;;3.75;2.97;;;;;;;25.70;60.76;100158.09;5112348;28;20202;-67
2022/07/04 02:09:42;;;;;;;3.15;2.83;;;;;;;26.00;60.24;100188.59;5111951;28;20206;-67
2022/07/04 02:14:53;;;;;;;4.18;2.80;;;;;;;25.97;60.55;100194.00;5112420;28;20208;-69
2022/07/04 02:17:21;;;;;;;3.85;2.83;;;;;;;25.83;60.77;100177.84;5112000;28;20198;-67
2022/07/04 02:19:49;;;;;;;3.10;2.90;;;;;;;25.57;59.61;100130.38;5111531;28;20201;-68
2022/07/04 02:22:16;;;;;;;5.28;2.85;;;;;;;25.99;59.75;100208.13;5112220;28;20197;-67
2022/07/04 02:24:44;;;;;;;2.85;2.65;;;;;;;25.59;60.16;100126.72;5112031;28;20198;-69
2022/07/04 02:27:11;;;;;;;3.30;3.08;;;;;;;25.97;59.90;100209.97;5111754;28;20204;-68
2022/07/04 02:29:38;;;;;;;7.20;2.80;;;;;;;25.99;59.43;100204.59;5111583;28;20201;-67
2022/07/04 02:32:05;;;;;;;5.88;3.00;;;;;;;26.02;59.12;100207.09;5111496;28;20228;-69
2022/07/04 02:34:32;;;;;;;7.28;3.28;;;;;;;25.87;59.03;100202.47;5093175;28;20209;-68
2022/07/04 02:36:59;;;;;;;4.35;3.22;;;;;;;25.90;58.31;100210.34;5075992;28;20201;-68
2022/07/04 02:39:26;;;;;;;3.33;3.03;;;;;;;25.91;58.75;100218.22;5111325;28;20197;-68
2022/07/04 02:41:54;;;;;;;3.92;3.03;;;;;;;26.05;58.04;100226.44;5111356;28;20193;-67
2022/07/04 02:44:21;;;;;;;5.25;2.83;;;;;;;25.93;57.76;100203.09;5111708;28;21168;-68
2022/07/04 02:46:48;;;;;;;3.30;2.90;;;;;;;26.09;57.85;100225.34;5111605;28;20197;-68
2022/07/04 02:49:15;;;;;;;3.15;2.88;;;;;;;26.12;58.21;100219.03;5111075;28;20204;-67
2022/07/04 02:51:42;;;;;;;3.17;2.90;;;;;;;26.02;58.61;100213.28;5111496;28;20248;-68
2022/07/04 02:54:09;;;;;;;3.20;2.78;;;;;;;26.07;58.27;100218.41;5111511;28;20258;-69
2022/07/04 02:56:36;;;;;;;2.85;2.65;;;;;;;26.27;56.90;100212.16;5091594;28;20194;-68
2022/07/04 02:59:04;;;;;;;3.55;3.17;;;;;;;26.33;57.78;100220.69;5110846;28;20197;-68
2022/07/04 03:01:31;;;;;;;2.85;2.65;;;;;;;26.28;56.98;100224.53;5110695;28;20228;-69
2022/07/04 03:03:59;;;;;;;5.40;3.33;;;;;;;26.27;57.32;100215.69;5111390;28;20254;-68
2022/07/04 03:06:25;;;;;;;4.47;2.70;;;;;;;26.20;56.97;100224.00;5111156;28;20649;-67
2022/07/04 03:08:52;;;;;;;5.65;2.75;;;;;;;26.25;57.05;100232.66;5111227;28;20201;-67
2022/07/04 03:11:19;;;;;;;4.07;2.92;;;;;;;26.37;55.69;100205.47;5111004;28;20198;-67
2022/07/04 03:13:46;;;;;;;2.85;2.60;;;;;;;26.14;56.14;100172.84;5111391;28;20204;-67
2022/07/04 03:16:15;;;;;;;7.25;2.72;;;;;;;26.50;56.49;100209.28;5110811;28;20665;-68
2022/07/04 03:18:41;;;;;;;3.35;2.47;;;;;;;26.74;57.02;100224.03;5110971;28;20194;-68
2022/07/04 03:21:08;;;;;;;3.13;2.85;;;;;;;27.11;55.60;100228.44;5111160;28;20589;-68
2022/07/04 03:23:35;;;;;;;3.00;2.50;;;;;;;27.16;54.76;100230.84;5111337;28;20656;-66
2022/07/04 03:26:03;;;;;;;6.68;3.50;;;;;;;27.25;54.42;100203.75;5110186;28;20189;-72
2022/07/04 03:28:30;;;;;;;5.82;2.47;;;;;;;27.68;53.69;100219.28;5109577;28;20673;-70
2022/07/04 03:30:56;;;;;;;7.90;2.58;;;;;;;27.99;52.19;100224.66;5110351;28;20618;-70
2022/07/04 03:33:25;;;;;;;5.03;3.08;;;;;;;28.11;52.82;100217.81;5111093;28;20232;-69
2022/07/04 03:35:51;;;;;;;9.60;3.00;;;;;;;28.25;52.60;100228.63;5112189;28;20197;-67
2022/07/04 03:38:18;;;;;;;4.00;3.05;;;;;;;28.40;51.85;100229.53;5114462;28;20189;-67
2022/07/04 03:40:45;;;;;;;3.38;2.78;;;;;;;28.44;52.20;100220.41;5113296;28;20612;-67
2022/07/04 03:43:12;;;;;;;6.68;2.90;;;;;;;28.89;51.89;100225.84;5114217;28;20185;-67
2022/07/04 03:45:39;;;;;;;3.38;3.10;;;;;;;29.00;52.47;100219.88;5115013;28;20189;-67
2022/07/04 03:48:06;;;;;;;12.82;3.00;;;;;;;28.95;54.27;100196.13;5079064;28;20589;-67
2022/07/04 03:50:34;;;;;;;4.32;3.50;;;;;;;29.66;53.00;100235.50;5114969;28;20197;-67
2022/07/04 03:53:01;;;;;;;3.15;2.78;;;;;;;29.74;53.10;100234.09;5114353;28;20220;-67
2022/07/04 03:55:28;;;;;;;5.78;3.05;;;;;;;29.88;53.77;100247.50;5114646;28;20199;-67
2022/07/04 03:57:55;;;;;;;8.88;2.63;;;;;;;29.72;53.85;100241.34;5110352;28;20200;-68
2022/07/04 04:00:21;;;;;;;3.53;2.90;;;;;;;29.94;53.98;100241.78;5114515;28;20253;-68
2022/07/04 04:02:48;;;;;;;12.73;3.08;;;;;;;29.96;53.96;100239.88;5094593;28;20261;-68
2022/07/04 04:05:26;;;;;;;5.05;2.63;;;;;;;29.73;53.95;100243.06;5114154;28;20209;-68
2022/07/04 04:07:56;;;;;;;5.68;2.78;;;;;;;29.84;53.72;100245.97;5111564;28;20258;-69
2022/07/04 04:10:23;;;;;;;5.15;2.70;;;;;;;29.29;54.15;100211.00;5114266;28;20254;-69
2022/07/04 04:12:50;;;;;;;8.00;3.33;;;;;;;29.25;54.76;100219.28;5113484;28;20220;-68
2022/07/04 04:15:17;;;;;;;7.40;2.83;;;;;;;29.00;52.93;100223.38;5113477;28;20242;-68
2022/07/04 04:17:44;;;;;;;4.80;2.58;;;;;;;28.81;53.06;100244.13;5113338;28;20193;-70
2022/07/04 04:20:11;;;;;;;16.77;3.05;;;;;;;28.63;53.02;100226.44;5113796;28;20712;-68
2022/07/04 04:22:38;;;;;;;4.07;3.03;;;;;;;28.67;53.69;100243.16;5114048;28;20200;-67
2022/07/04 04:25:07;;;;;;;6.22;2.85;;;;;;;28.84;51.54;100248.41;5086657;28;20197;-69
2022/07/04 04:27:34;;;;;;;8.77;2.88;;;;;;;28.90;52.77;100218.69;5112215;28;20210;-68
2022/07/04 04:30:01;;;;;;;3.38;3.08;;;;;;;29.64;48.55;100245.44;5113056;28;20196;-68
2022/07/04 04:32:28;;;;;;;11.40;2.95;;;;;;;30.29;46.68;100244.03;5113357;28;20213;-68
2022/07/04 04:34:54;;;;;;;4.45;2.80;;;;;;;31.32;43.43;100239.94;5111181;28;20200;-68
2022/07/04 04:37:21;;;;;;;15.10;3.05;;;;;;;31.56;42.28;100224.00;5113334;28;20205;-71
2022/07/04 04:39:48;;;;;;;2.95;2.78;;;;;;;32.34;41.99;100247.91;5113830;28;20212;-71
2022/07/04 04:42:16;;;;;;;9.35;2.72;;;;;;;32.89;41.28;100251.94;5114255;28;20197;-69
2022/07/04 04:44:43;;;;;;;7.15;3.05;;;;;;;33.68;38.97;100260.19;5109348;28;20213;-68
2022/07/04 04:47:10;;;;;;;4.65;2.63;;;;;;;34.10;40.06;100250.59;5098880;28;20209;-72
2022/07/04 04:49:37;;;;;;;4.05;2.70;;;;;;;34.78;37.92;100253.09;5093586;28;20209;-71
2022/07/04 04:52:05;;;;;;;4.60;2.60;;;;;;;34.82;37.97;100240.22;5082742;28;20239;-64
2022/07/04 04:54:33;;;;;;;7.13;2.72;;;;;;;34.73;37.02;100263.41;5104991;28;20258;-67
2022/07/04 04:57:00;;;;;;;3.17;2.97;;;;;;;34.67;37.15;100234.28;5105657;28;20193;-72
2022/07/04 04:59:30;;;;;;;3.47;2.80;;;;;;;34.26;37.50;100259.16;5103930;28;20706;-72
2022/07/04 05:01:57;;;;;;;4.88;2.78;;;;;;;32.91;39.32;100226.66;5100579;28;20229;-74
2022/07/04 05:04:24;;;;;;;4.78;3.50;;;;;;;33.65;38.02;100265.81;5093238;28;20209;-68
2022/07/04 05:06:51;;;;;;;6.03;2.60;;;;;;;33.27;39.61;100268.75;5086298;28;20192;-68
2022/07/04 05:09:19;;;;;;;5.63;2.53;;;;;;;33.80;40.76;100259.25;5102439;28;20200;-68
2022/07/04 05:11:46;;;;;;;4.50;2.80;;;;;;;34.81;42.95;100285.22;5099698;28;20193;-67
2022/07/04 05:14:13;;;;;;;10.40;3.67;;;;;;;34.92;43.29;100283.47;5092787;28;20666;-66
2022/07/04 05:16:41;;;;;;;5.53;3.00;;;;;;;33.86;43.29;100282.97;5101045;28;20209;-67
2022/07/04 05:19:08;;;;;;;14.07;3.92;;;;;;;35.05;42.39;100286.84;5092620;28;20193;-67
2022/07/04 05:21:35;;;;;;;11.63;3.72;;;;;;;35.22;41.88;100283.63;5103635;28;20215;-68
2022/07/04 05:24:01;;;;;;;6.95;2.75;;;;;;;35.06;41.20;100277.78;5112872;28;20209;-68
2022/07/04 05:26:28;;;;;;;9.25;3.33;;;;;;;35.08;41.18;100286.59;5102537;28;20207;-68
2022/07/04 05:28:57;;;;;;;11.43;3.42;;;;;;;35.92;40.38;100291.13;5112808;28;20204;-68
2022/07/04 05:31:24;;;;;;;13.25;3.53;;;;;;;34.33;42.47;100290.00;5112925;28;20720;-68
2022/07/04 05:33:52;;;;;;;15.25;3.80;;;;;;;34.86;41.79;100287.50;5112403;28;20311;-66
2022/07/04 05:36:20;;;;;;;8.35;3.83;;;;;;;35.16;40.95;100278.75;5112767;28;20209;-66
2022/07/04 05:38:47;;;;;;;6.10;3.55;;;;;;;35.65;40.25;100291.66;5103485;28;20198;-67
2022/07/04 05:41:14;;;;;;;6.80;3.33;;;;;;;35.35;39.89;100257.34;5099203;28;20212;-67
2022/07/04 05:43:41;;;;;;;7.68;3.75;;;;;;;33.12;40.78;100223.34;5099786;28;20194;-66
2022/07/04 05:46:08;;;;;;;5.65;3.20;;;;;;;32.61;43.40;100288.00;5093634;28;20684;-67
2022/07/04 05:48:35;;;;;;;12.23;3.88;;;;;;;32.89;45.17;100260.00;5103276;28;20580;-67
2022/07/04 05:51:03;;;;;;;8.43;3.45;;;;;;;33.45;44.23;100277.22;5108900;28;20215;-67
2022/07/04 05:53:30;;;;;;;9.90;3.67;;;;;;;33.46;44.26;100284.34;5092433;28;20233;-67
2022/07/04 05:55:57;;;;;;;6.80;4.03;;;;;;;33.93;42.67;100285.22;5109273;28;20668;-67
2022/07/04 05:58:23;;;;;;;8.32;3.30;;;;;;;34.62;41.70;100292.19;5075809;28;20193;-67
2022/07/04 06:00:50;;;;;;;7.32;3.60;;;;;;;35.43;40.92;100291.72;5111647;28;20677;-67
2022/07/04 06:03:17;;;;;;;11.65;3.45;;;;;;;35.38;40.16;100278.66;5111794;28;20205;-67
2022/07/04 06:05:44;;;;;;;9.85;3.45;;;;;;;35.63;39.52;100289.09;5112188;28;20205;-67
2022/07/04 06:08:13;;;;;;;8.15;3.10;;;;;;;35.18;37.79;100287.53;5112226;28;20197;-67
2022/07/04 06:10:40;;;;;;;6.15;2.70;;;;;;;35.48;38.17;100289.50;5112061;28;20205;-67
2022/07/04 06:13:07;;;;;;;2.90;2.53;;;;;;;34.76;37.71;100290.09;5111416;28;20708;-68
2022/07/04 06:15:34;;;;;;;3.08;2.88;;;;;;;35.08;37.83;100287.44;5111579;28;20667;-67
2022/07/04 06:18:02;;;;;;;19.92;3.88;;;;;;;35.07;42.10;100284.88;5111357;28;20193;-68
2022/07/04 06:20:29;;;;;;;12.20;4.18;;;;;;;34.58;42.68;100277.25;5111383;28;20208;-68
2022/07/04 07:12:02;;;;;;;18.60;3.55;;;;;;;33.01;44.91;100268.94;5068339;28;20548;-66
2022/07/04 07:14:29;;;;;;;9.43;3.60;;;;;;;33.38;45.14;100284.91;5068444;28;20230;-66
2022/07/04 07:16:56;;;;;;;9.90;3.80;;;;;;;33.41;44.88;100262.31;5068147;28;20268;-71
2022/07/04 07:19:23;;;;;;;7.50;3.78;;;;;;;33.16;40.39;100283.97;5068175;28;20205;-66
2022/07/04 07:21:50;;;;;;;9.30;3.50;;;;;;;33.55;40.06;100280.06;5068139;28;20202;-66
2022/07/04 07:24:17;;;;;;;3.15;2.83;;;;;;;33.43;40.77;100278.34;5068059;28;20194;-66
2022/07/04 07:40:47;;;;;;;6.85;3.08;;;;;;;33.90;37.51;100272.81;5068235;27;20951;-70
2022/07/04 07:43:14;;;;;;;8.15;3.38;;;;;;;34.14;38.27;100265.53;5059190;28;20600;-70
2022/07/04 07:45:40;;;;;;;5.60;3.30;;;;;;;33.65;39.04;100275.72;5062429;28;20198;-70
2022/07/04 08:01:52;;;;;;;4.05;2.83;;;;;;;33.89;37.57;100271.97;5067894;27;20540;-71
2022/07/04 08:04:37;;;;;;;4.80;2.97;;;;;;;33.99;37.82;100280.19;5041845;28;20203;-70
2022/07/04 08:07:05;;;;;;;8.07;3.72;;;;;;;33.84;38.77;100270.63;5028625;28;20207;-71
2022/07/04 08:09:32;;;;;;;4.93;3.03;;;;;;;33.88;38.54;100259.50;5035615;28;20230;-72
2022/07/04 08:12:00;;;;;;;8.13;3.17;;;;;;;34.04;38.50;100255.56;5029795;28;20195;-71
2022/07/04 08:14:27;;;;;;;5.40;3.17;;;;;;;34.03;38.39;100273.59;5048436;28;20214;-72
2022/07/04 08:16:56;;;;;;;6.63;2.65;;;;;;;34.18;39.66;100274.22;5036124;28;20203;-70
2022/07/04 08:19:25;;;;;;;9.80;2.92;;;;;;;34.24;38.94;100258.44;5046443;28;20206;-69
2022/07/04 08:21:52;;;;;;;3.38;3.00;;;;;;;33.72;37.04;100266.19;5047958;28;20215;-70
2022/07/04 08:24:19;;;;;;;33.00;4.13;;;;;;;33.38;36.88;100241.03;5047560;28;20214;-70
2022/07/04 08:26:45;;;;;;;5.57;3.40;;;;;;;33.57;37.87;100260.13;5038837;28;20579;-70
2022/07/04 08:29:12;;;;;;;6.38;3.05;;;;;;;33.74;37.31;100264.25;5028591;28;20209;-69
2022/07/04 08:31:39;;;;;;;5.10;3.47;;;;;;;33.82;37.26;100259.09;5047634;28;20599;-69
2022/07/04 08:34:07;;;;;;;10.95;2.97;;;;;;;33.85;37.65;100267.78;5047724;28;20209;-70
2022/07/04 08:36:34;;;;;;;4.20;3.65;;;;;;;33.27;38.75;100263.38;5047463;28;20203;-70
2022/07/04 08:39:01;;;;;;;4.40;2.75;;;;;;;33.02;38.74;100271.53;5047581;28;20203;-69
2022/07/04 08:41:29;;;;;;;2.90;2.70;;;;;;;33.38;37.96;100273.31;5047419;28;20211;-70
2022/07/04 08:43:57;;;;;;;8.00;3.15;;;;;;;33.33;37.33;100229.75;5047398;28;20235;-70
2022/07/04 08:46:28;;;;;;;8.27;2.72;;;;;;;33.19;37.59;100256.84;5033470;28;20208;-69
2022/07/04 08:48:59;;;;;;;10.95;3.20;;;;;;;33.70;38.80;100257.41;5047455;28;20659;-70
2022/07/04 08:51:38;;;;;;;6.57;3.10;;;;;;;33.68;37.47;100235.97;5047103;28;20223;-70
2022/07/04 08:58:25;;;;;;;6.15;2.97;;;;;;;33.95;37.44;100251.81;5047476;28;20268;-70
2022/07/04 08:59:45;;;;;;;4.78;3.00;;;;;;;33.88;38.24;100255.97;5046038;28;20210;-70
2022/07/04 09:02:14;;;;;;;4.82;3.10;;;;;;;34.03;38.51;100259.28;5023269;28;20200;-71
2022/07/04 09:04:43;;;;;;;7.53;2.97;;;;;;;33.76;38.37;100257.78;5033825;28;20671;-71
2022/07/04 09:07:12;;;;;;;4.00;3.17;;;;;;;33.67;37.68;100247.75;5033565;28;20200;-71
2022/07/04 09:09:40;;;;;;;7.47;3.22;;;;;;;34.06;36.85;100251.81;5033631;28;20227;-70
2022/07/04 09:12:08;;;;;;;6.57;3.35;;;;;;;33.99;36.45;100245.22;5033464;28;20207;-71
2022/07/04 09:14:35;;;;;;;4.82;2.75;;;;;;;34.10;37.37;100252.41;5015407;28;20629;-69
2022/07/04 09:17:02;;;;;;;10.85;3.22;;;;;;;33.93;38.45;100251.06;5032097;28;20269;-69
2022/07/04 09:19:28;;;;;;;10.30;3.45;;;;;;;33.93;38.07;100237.59;5021537;28;20204;-71
2022/07/04 09:21:55;;;;;;;3.58;2.70;;;;;;;34.05;35.20;100249.22;5033695;28;20196;-69
2022/07/04 09:24:48;;;;;;;10.25;3.05;;;;;;;34.11;35.36;100240.66;5001537;28;20227;-70
2022/07/04 09:27:31;;;;;;;3.30;3.08;;;;;;;34.05;35.06;100249.22;5033137;28;20262;-71
2022/07/04 09:29:58;;;;;;;6.38;3.13;;;;;;;34.01;36.27;100242.38;5023600;28;20282;-71
2022/07/04 09:32:33;;;;;;;3.30;2.97;;;;;;;33.54;36.02;100166.25;5029396;28;20682;-71
2022/07/04 09:35:00;;;;;;;6.25;2.90;;;;;;;34.09;36.24;100231.84;5033406;28;20294;-70
2022/07/04 09:37:35;;;;;;;6.30;2.90;;;;;;;34.24;35.82;100236.91;5033007;28;20212;-70
2022/07/04 09:40:05;;;;;;;6.38;2.97;;;;;;;34.26;35.44;100234.94;5033215;28;20225;-71
2022/07/04 09:42:39;;;;;;;2.58;2.45;;;;;;;34.62;34.44;100219.44;5033200;28;20315;-71
2022/07/04 09:45:08;;;;;;;4.88;3.33;;;;;;;34.53;34.84;100242.63;5033133;28;20203;-71
2022/07/04 09:47:36;;;;;;;5.65;2.90;;;;;;;34.01;35.70;100234.28;5032216;28;20287;-70
2022/07/04 09:50:06;;;;;;;4.55;2.83;;;;;;;34.12;35.11;100231.59;5013270;28;20236;-70
2022/07/04 09:52:33;;;;;;;3.22;2.90;;;;;;;34.28;35.39;100232.97;5014331;28;20208;-70
2022/07/04 09:55:02;;;;;;;9.60;3.40;;;;;;;34.29;35.56;100228.44;5033084;28;20230;-70
2022/07/04 09:57:31;;;;;;;8.95;3.00;;;;;;;34.04;35.72;100234.03;5032944;28;20682;-71
2022/07/04 10:00:16;;;;;;;10.77;3.28;;;;;;;34.13;35.67;100227.97;5028141;28;20231;-71
2022/07/04 10:02:44;;;;;;;4.53;2.70;;;;;;;34.05;35.70;100233.94;5022965;28;20200;-71
2022/07/04 10:05:11;;;;;;;5.88;3.45;;;;;;;34.15;35.39;100220.63;5028944;28;20683;-71
2022/07/04 10:07:43;;;;;;;5.07;3.25;;;;;;;34.38;35.52;100238.47;5014465;28;20209;-72
2022/07/04 10:10:27;;;;;;;7.55;2.83;;;;;;;34.49;37.08;100235.78;5032602;28;20228;-71
2022/07/04 10:12:56;;;;;;;3.35;3.15;;;;;;;34.29;35.50;100214.97;5027557;28;20202;-71
2022/07/04 10:15:23;;;;;;;5.13;3.67;;;;;;;34.59;35.17;100225.94;5031003;28;20679;-71
2022/07/04 10:17:51;;;;;;;5.63;3.10;;;;;;;34.89;34.73;100227.94;5032702;28;20614;-71
2022/07/04 10:20:18;;;;;;;4.63;3.03;;;;;;;34.50;34.10;100237.47;5032853;28;20690;-71
2022/07/04 10:22:45;;;;;;;4.78;3.17;;;;;;;34.42;35.04;100223.78;5032815;28;20204;-71
2022/07/04 10:25:12;;;;;;;6.97;2.88;;;;;;;34.72;33.78;100225.81;5032605;28;20207;-71
2022/07/04 10:27:40;;;;;;;6.05;3.40;;;;;;;34.67;34.23;100207.34;5031914;28;20206;-72
2022/07/04 10:30:12;;;;;;;5.47;3.28;;;;;;;34.82;34.95;100216.81;5030663;28;20230;-71
2022/07/04 10:32:39;;;;;;;8.68;3.42;;;;;;;34.77;34.62;100213.69;5032648;28;20609;-70
2022/07/04 10:35:07;;;;;;;5.10;3.35;;;;;;;34.73;35.18;100205.97;5032764;28;20207;-72
2022/07/04 10:38:00;;;;;;;5.53;3.42;;;;;;;34.90;35.47;100207.25;4998021;28;20266;-70
2022/07/04 10:40:45;;;;;;;5.47;3.22;;;;;;;34.92;34.08;100203.47;5014243;28;20623;-71
2022/07/04 10:44:01;;;;;;;10.88;3.88;;;;;;;34.71;34.64;100208.78;5032585;28;20199;-70
2022/07/04 10:46:37;;;;;;;7.00;3.10;;;;;;;34.88;35.12;100198.44;5032604;28;20679;-70
2022/07/04 10:49:07;;;;;;;3.92;3.33;;;;;;;34.79;33.95;100195.53;5032411;28;20208;-70
2022/07/04 10:51:41;;;;;;;3.20;2.95;;;;;;;34.49;34.62;100154.97;5032150;28;20227;-71
2022/07/04 10:54:10;;;;;;;11.35;3.00;;;;;;;34.97;34.58;100194.97;4997907;28;20238;-71
2022/07/04 10:56:39;;;;;;;3.42;3.15;;;;;;;34.92;33.77;100163.03;5031437;28;20673;-71
2022/07/04 10:59:10;;;;;;;10.52;3.58;;;;;;;35.18;33.52;100177.00;5031875;28;20283;-70
2022/07/04 11:01:39;;;;;;;3.80;3.10;;;;;;;34.92;33.97;100179.19;5029105;28;20232;-70
2022/07/04 11:04:06;;;;;;;7.47;3.35;;;;;;;34.51;34.69;100144.03;5031353;28;20634;-71
2022/07/04 11:06:54;;;;;;;5.10;3.20;;;;;;;34.73;35.08;100162.84;5031316;28;20202;-70
2022/07/04 11:09:22;;;;;;;3.80;3.55;;;;;;;34.97;35.57;100166.16;4979783;28;20192;-71
2022/07/04 11:11:51;;;;;;;4.78;3.08;;;;;;;34.74;35.36;100151.97;5012290;28;20251;-70
2022/07/04 11:14:38;;;;;;;8.02;3.53;;;;;;;34.85;34.42;100173.44;5012271;28;20203;-70
2022/07/04 11:17:07;;;;;;;8.50;3.55;;;;;;;34.72;34.44;100172.78;5012327;28;20208;-71
2022/07/04 11:19:34;;;;;;;10.68;3.33;;;;;;;34.52;34.43;100160.09;4998734;28;20196;-70
2022/07/04 11:22:01;;;;;;;5.95;3.63;;;;;;;34.69;34.76;100154.19;5032101;28;20199;-70
2022/07/04 11:24:29;;;;;;;4.07;3.45;;;;;;;34.91;34.88;100155.06;5031688;28;20200;-70
2022/07/04 11:26:55;;;;;;;3.60;3.40;;;;;;;35.20;34.85;100156.16;5031767;28;20208;-69
2022/07/04 11:29:22;;;;;;;6.47;3.20;;;;;;;34.64;34.98;100150.16;5031785;28;20191;-70
2022/07/04 11:31:52;;;;;;;12.63;3.97;;;;;;;35.10;35.63;100144.44;5031409;28;20231;-69
2022/07/04 11:34:20;;;;;;;4.43;3.75;;;;;;;35.38;34.40;100148.31;5031132;28;20556;-71
2022/07/04 11:36:49;;;;;;;12.23;4.05;;;;;;;35.66;34.24;100136.84;5031576;28;20199;-71
2022/07/04 11:39:19;;;;;;;5.38;3.40;;;;;;;35.61;35.49;100134.53;5031467;28;20210;-71
2022/07/04 11:47:19;;;;;;;6.70;3.65;;;;;;;35.49;34.81;100122.13;5031495;28;20325;-70
2022/07/04 11:49:50;;;;;;;8.93;3.20;;;;;;;35.40;34.34;100131.00;5031780;28;20227;-70
2022/07/04 11:52:19;;;;;;;9.18;3.38;;;;;;;35.23;34.66;100118.13;5030937;28;20230;-70
2022/07/04 11:54:47;;;;;;;3.55;3.30;;;;;;;35.00;34.98;100121.91;5030769;28;20200;-70
2022/07/04 11:57:18;;;;;;;4.35;3.92;;;;;;;35.07;35.63;100123.97;5030905;28;20203;-71
2022/07/04 11:59:53;;;;;;;4.13;3.63;;;;;;;35.12;34.80;100110.13;5030637;28;20232;-69
2022/07/04 12:02:20;;;;;;;5.15;3.72;;;;;;;35.37;34.47;100119.63;5030897;28;20203;-70
2022/07/04 12:04:48;;;;;;;3.83;3.60;;;;;;;35.69;34.82;100125.78;4996012;28;20199;-71
2022/07/04 12:07:17;;;;;;;6.28;4.65;;;;;;;35.51;34.44;100122.84;5030923;28;20207;-71
2022/07/04 12:09:46;;;;;;;6.68;3.95;;;;;;;35.23;35.14;100107.34;5030585;28;20200;-71
2022/07/04 12:12:13;;;;;;;7.70;3.72;;;;;;;34.77;35.09;100113.97;5030769;28;20240;-70
2022/07/04 12:14:40;;;;;;;10.10;3.60;;;;;;;34.79;35.63;100114.69;5030725;28;20202;-70
2022/07/04 12:17:13;;;;;;;8.68;3.50;;;;;;;34.64;35.65;100121.38;5030793;28;20199;-70
2022/07/04 12:19:52;;;;;;;5.88;3.50;;;;;;;34.67;34.77;100117.59;5030640;28;20317;-72
2022/07/04 12:22:30;;;;;;;3.40;3.28;;;;;;;34.75;35.13;100118.63;4979914;28;20202;-71
2022/07/04 12:24:57;;;;;;;5.15;3.70;;;;;;;34.82;35.54;100114.41;5030761;28;20206;-71
2022/07/04 12:27:26;;;;;;;6.88;3.95;;;;;;;34.91;34.99;100104.72;5030608;28;20223;-71
2022/07/04 12:29:54;;;;;;;6.93;4.07;;;;;;;35.29;35.23;100104.13;5030616;28;20227;-70
2022/07/04 12:32:22;;;;;;;4.78;3.58;;;;;;;35.61;35.00;100107.56;5012370;28;20227;-70
2022/07/04 12:34:49;;;;;;;7.38;4.32;;;;;;;35.76;34.44;100108.06;5030354;28;20219;-72
2022/07/04 12:37:17;;;;;;;8.63;3.90;;;;;;;35.97;34.12;100113.38;5032801;28;20226;-71
2022/07/04 12:39:46;;;;;;;4.10;3.60;;;;;;;36.05;33.91;100105.44;5034325;28;20585;-72
2022/07/04 12:42:15;;;;;;;3.40;3.10;;;;;;;35.91;34.64;100109.38;5034121;28;20200;-71
2022/07/04 12:44:42;;;;;;;5.20;3.88;;;;;;;35.99;33.85;100100.59;5034017;28;20207;-70
2022/07/04 12:47:10;;;;;;;6.30;3.58;;;;;;;36.05;33.48;100086.53;5033915;28;20207;-71
2022/07/04 12:49:37;;;;;;;16.63;4.03;;;;;;;35.67;34.04;100042.28;5034327;28;20625;-72
2022/07/04 12:52:06;;;;;;;6.90;4.10;;;;;;;36.19;33.58;100103.22;5033994;28;20440;-72
2022/07/04 12:54:34;;;;;;;5.03;3.78;;;;;;;36.09;33.67;100086.16;5031530;28;20698;-71
2022/07/04 12:57:09;;;;;;;6.88;4.47;;;;;;;36.09;34.75;100085.31;5019547;28;20703;-71
2022/07/04 12:59:36;;;;;;;5.72;3.30;;;;;;;36.24;33.50;100094.72;5034206;28;20214;-70